Aviation Digital Data Service (ADDS)

Output produced by METARs form (0901 UTC 23 January 2019)
found at http://aviationweather.gov/metar/data/
 
METAR text: EDDH 230850Z 12008KT 090V150 8000 SCT011 M05/M08 Q1003 TEMPO BKN012
Conditions at: EDDH (HAMBURG/FUHLSBUT, DE) observed 0850 UTC 23 January 2019
Temperature: -5.0°C (23°F)
Dewpoint: -8.0°C (18°F) [RH = 79%]
Pressure (altimeter): 29.62 inches Hg (1003.0 mb)
Winds: from the ESE (120 degrees) at 9 MPH (8 knots; 4.1 m/s)
Visibility: 5 miles ( 8 km)
Ceiling: at least 12,000 feet AGL
Clouds: scattered clouds at 1100 feet AGL
Weather: no significant weather observed at this time

METAR text: EDDH 230820Z 11009KT 8000 BKN011 M05/M08 Q1003 TEMPO SCT012
Conditions at: EDDH (HAMBURG/FUHLSBUT, DE) observed 0820 UTC 23 January 2019
Temperature: -5.0°C (23°F)
Dewpoint: -8.0°C (18°F) [RH = 79%]
Pressure (altimeter): 29.62 inches Hg (1003.0 mb)
Winds: from the ESE (110 degrees) at 10 MPH (9 knots; 4.6 m/s)
Visibility: 5 miles ( 8 km)
Ceiling: 1100 feet AGL
Clouds: broken clouds at 1100 feet AGL
Weather: no significant weather observed at this time

Forecast for: EDDH (HAMBURG/FUHLSBUT, DE)
Text: TAF EDDH 230500Z 2306/2412 11007KT 4000 BR BKN009
Forecast period: 0600 UTC 23 January 2019 to 1200 UTC 24 January 2019
Forecast type: FROM: standard forecast or significant change
Winds: from the ESE (110 degrees) at 8 MPH (7 knots; 3.6 m/s)
Visibility: 2.49 miles (4.01 km)
Ceiling: 900 feet AGL
Clouds: broken clouds at 900 feet AGL
Weather: BR  (mist)
Text: BECMG 2306/2309 CAVOK
Forecast period: 0600 UTC 23 January 2019 to 1200 UTC 24 January 2019
Forecast type: BECOMING: Conditions expected to become as follows by 0900 UTC 23 January 2019
Winds: from the ESE (110 degrees) at 8 MPH (7 knots; 3.6 m/s)
Visibility: 6 or more miles 10+ km)
Ceiling: unknown
Clouds: missing
Weather: NSW  (no significant weather)
Text: PROB30
Forecast period: 0900 UTC 23 January 2019 to 0000 UTC 24 January 2019
Forecast type: TEMPORARY: The following changes expected for less than half the time period
Visibility: missing
Ceiling: 800 feet AGL
Clouds: broken clouds at 800 feet AGL
Weather: no significant weather forecast for this period
Text: TEMPO 2309/2324 BKN008
Forecast period: 0000 to 0900 UTC 24 January 2019
Forecast type: TEMPORARY: The following changes expected for less than half the time period
Visibility: 2.49 miles (4.01 km)
Ceiling: 700 feet AGL
Clouds: broken clouds at 700 feet AGL
Weather: BR  (mist)